createdAt,value
2019-05-22T00:03:41.981Z,64.95
2019-05-22T00:08:51.228Z,64.60
2019-05-22T00:14:01.743Z,64.08
2019-05-22T00:19:18.635Z,63.94
2019-05-22T00:24:27.394Z,63.60
2019-05-22T00:29:42.770Z,63.24
2019-05-22T00:34:51.507Z,62.58
2019-05-22T00:40:09.000Z,62.91
2019-05-22T00:45:21.548Z,62.83
2019-05-22T00:50:48.338Z,62.69
2019-05-22T00:56:16.080Z,62.53
2019-05-22T01:01:42.640Z,62.23
2019-05-22T01:06:53.236Z,62.14
2019-05-22T01:12:25.116Z,62.25
2019-05-22T01:17:38.320Z,62.03
2019-05-22T01:22:52.452Z,62.17
2019-05-22T01:28:04.341Z,61.80
2019-05-22T01:33:31.146Z,61.88
2019-05-22T01:38:46.990Z,61.76
2019-05-22T01:43:58.044Z,61.33
2019-05-22T01:49:09.095Z,61.78
2019-05-22T01:54:22.563Z,60.49
2019-05-22T01:59:52.270Z,61.56
2019-05-22T02:05:06.478Z,61.42
2019-05-22T02:10:23.479Z,61.09
2019-05-22T02:15:30.878Z,61.19
2019-05-22T02:20:38.435Z,61.71
2019-05-22T02:25:53.902Z,61.16
2019-05-22T02:31:05.438Z,61.57
2019-05-22T02:36:13.927Z,61.52
2019-05-22T02:41:26.860Z,60.58
2019-05-22T02:46:38.885Z,60.88
2019-05-22T02:51:54.069Z,60.76
2019-05-22T02:57:05.124Z,61.23
2019-05-22T03:02:17.012Z,61.25
2019-05-22T03:07:30.137Z,61.16
2019-05-22T03:12:39.785Z,60.57
2019-05-22T03:17:50.226Z,60.80
2019-05-22T03:23:11.275Z,61.08
2019-05-22T03:28:28.724Z,60.26
2019-05-22T03:33:40.256Z,60.35
2019-05-22T03:38:54.195Z,60.10
2019-05-22T03:44:05.661Z,60.36
2019-05-22T03:49:29.629Z,59.96
2019-05-22T03:54:39.367Z,59.79
2019-05-22T03:59:50.872Z,59.97
2019-05-22T04:05:01.616Z,59.36
2019-05-22T04:10:13.290Z,59.54
2019-05-22T04:15:25.640Z,59.43
2019-05-22T04:20:35.975Z,58.99
2019-05-22T04:25:46.064Z,58.77
2019-05-22T04:31:00.065Z,59.09
2019-05-22T04:36:11.171Z,58.95
2019-05-22T04:41:42.850Z,58.29
2019-05-22T04:47:12.670Z,58.73
2019-05-22T04:52:24.523Z,58.19
2019-05-22T04:57:54.650Z,58.59
2019-05-22T05:03:07.082Z,58.54
2019-05-22T05:08:20.787Z,58.76
2019-05-22T05:13:35.553Z,58.26
2019-05-22T05:18:46.413Z,58.66
2019-05-22T05:23:59.985Z,57.65
2019-05-22T05:29:13.409Z,57.41
2019-05-22T05:34:45.503Z,57.47
2019-05-22T05:40:47.964Z,57.69
2019-05-22T05:45:56.992Z,56.68
2019-05-22T05:51:42.399Z,56.55
2019-05-22T05:57:02.753Z,55.87
2019-05-22T06:02:12.958Z,56.24
2019-05-22T06:07:25.793Z,55.45
2019-05-22T06:12:57.346Z,54.86
2019-05-22T06:18:39.087Z,53.62
2019-05-22T06:24:12.786Z,53.92
2019-05-22T06:29:27.883Z,51.43
2019-05-22T06:34:39.882Z,51.99
2019-05-22T06:39:53.064Z,50.97
2019-05-22T06:45:05.029Z,50.75
2019-05-22T06:50:15.489Z,50.14
2019-05-22T06:55:26.912Z,51.21
2019-05-22T07:00:44.182Z,50.15
2019-05-22T07:05:59.163Z,50.94
2019-05-22T07:11:13.189Z,50.30
2019-05-22T07:16:31.199Z,51.67
2019-05-22T07:21:44.268Z,51.80
2019-05-22T07:26:58.586Z,50.27
2019-05-22T07:32:11.418Z,50.41
2019-05-22T07:37:23.506Z,50.06
2019-05-22T07:42:34.078Z,50.54
2019-05-22T07:47:48.132Z,48.32
2019-05-22T07:52:56.617Z,47.49
2019-05-22T07:58:20.082Z,49.09
2019-05-22T08:03:32.622Z,49.95
2019-05-22T08:09:02.891Z,48.97
2019-05-22T08:14:17.727Z,47.98
2019-05-22T08:19:30.084Z,47.20
2019-05-22T08:24:42.003Z,45.77
2019-05-22T08:29:56.891Z,45.75
2019-05-22T08:35:11.009Z,46.42
2019-05-22T08:40:25.785Z,45.78
2019-05-22T08:45:36.811Z,43.16
2019-05-22T08:50:49.035Z,44.70
2019-05-22T08:56:04.610Z,43.78
2019-05-22T09:01:18.700Z,43.09
2019-05-22T09:06:28.652Z,45.00
2019-05-22T09:11:43.235Z,44.65
2019-05-22T09:16:52.114Z,43.28
2019-05-22T09:22:03.550Z,42.56
2019-05-22T09:27:12.230Z,43.17
2019-05-22T09:32:22.018Z,44.09
2019-05-22T09:37:34.511Z,41.88
2019-05-22T09:42:47.089Z,41.94
2019-05-22T09:47:56.775Z,44.09
2019-05-22T09:53:07.407Z,44.71
2019-05-22T09:58:19.627Z,43.09
2019-05-22T10:03:31.482Z,43.09
2019-05-22T10:08:39.584Z,43.05
2019-05-22T10:13:47.929Z,41.70
2019-05-22T10:18:56.231Z,42.39
2019-05-22T10:24:26.430Z,41.91
2019-05-22T10:29:51.755Z,41.94
2019-05-22T10:35:02.503Z,40.59
2019-05-22T10:40:15.203Z,40.78
2019-05-22T10:45:26.860Z,38.23
2019-05-22T10:50:55.267Z,37.02
2019-05-22T10:56:04.752Z,36.68
2019-05-22T11:01:12.445Z,36.28
2019-05-22T11:06:24.169Z,36.13
2019-05-22T11:11:37.634Z,37.06
2019-05-22T11:16:49.213Z,38.01
2019-05-22T11:21:59.566Z,39.06
2019-05-22T11:27:15.825Z,38.20
2019-05-22T11:32:24.202Z,37.61
2019-05-22T11:37:33.832Z,37.61
2019-05-22T11:42:43.127Z,37.87
2019-05-22T11:47:56.373Z,37.74
2019-05-22T11:53:06.251Z,38.63
2019-05-22T11:58:39.985Z,38.10
2019-05-22T12:03:51.194Z,39.44
2019-05-22T12:09:08.132Z,39.87
2019-05-22T12:14:23.264Z,37.94
2019-05-22T12:19:34.050Z,36.82
2019-05-22T12:24:48.933Z,36.79
2019-05-22T12:29:58.211Z,37.07
2019-05-22T12:35:05.916Z,35.46
2019-05-22T12:40:20.677Z,33.95
2019-05-22T12:45:35.404Z,33.70
2019-05-22T12:50:58.090Z,32.45
2019-05-22T12:56:11.876Z,34.13
2019-05-22T13:01:21.891Z,33.13
2019-05-22T13:06:32.866Z,34.10
2019-05-22T13:11:41.377Z,34.35
2019-05-22T13:16:54.363Z,33.58
2019-05-22T13:22:27.030Z,33.85
2019-05-22T13:27:38.572Z,33.38
2019-05-22T13:32:58.744Z,33.94
2019-05-22T13:38:07.781Z,34.46
2019-05-22T13:43:28.866Z,33.41
2019-05-22T13:48:40.873Z,34.98
2019-05-22T13:53:57.031Z,33.74
2019-05-22T13:59:16.127Z,33.64
2019-05-22T14:04:30.577Z,32.66
2019-05-22T14:09:41.248Z,32.51
2019-05-22T14:14:53.635Z,31.75
2019-05-22T14:20:05.146Z,33.18
2019-05-22T14:25:18.436Z,32.10
2019-05-22T14:30:31.166Z,32.98
2019-05-22T14:35:48.864Z,33.54
2019-05-22T14:40:57.928Z,36.06
2019-05-22T14:46:16.045Z,37.65
2019-05-22T14:51:27.834Z,37.07
2019-05-22T14:56:41.499Z,37.75
2019-05-22T15:01:52.099Z,37.88
2019-05-22T15:07:04.051Z,36.35
2019-05-22T15:12:15.787Z,34.81
2019-05-22T15:17:51.180Z,35.70
2019-05-22T15:23:04.656Z,36.82
2019-05-22T15:28:18.557Z,34.68
2019-05-22T15:33:29.755Z,35.26
2019-05-22T15:38:45.905Z,35.45
2019-05-22T15:43:58.762Z,35.06
2019-05-22T15:49:14.258Z,34.51
2019-05-22T15:54:27.480Z,35.41
2019-05-22T15:59:39.234Z,35.16
2019-05-22T16:04:49.420Z,35.61
2019-05-22T16:10:18.114Z,34.99
2019-05-22T16:15:35.128Z,34.84
2019-05-22T16:20:43.884Z,35.11
2019-05-22T16:25:55.993Z,35.33
2019-05-22T16:31:05.404Z,36.07
2019-05-22T16:36:20.700Z,35.22
2019-05-22T16:41:29.467Z,35.77
2019-05-22T16:46:41.111Z,34.69
2019-05-22T16:51:51.745Z,36.27
2019-05-22T16:57:21.839Z,36.22
2019-05-22T17:02:54.270Z,34.14
2019-05-22T17:08:06.497Z,35.01
2019-05-22T17:13:18.677Z,35.54
2019-05-22T17:18:47.022Z,35.95
2019-05-22T17:23:53.410Z,34.10
2019-05-22T17:29:01.588Z,35.51
2019-05-22T17:34:32.035Z,32.53
2019-05-22T17:39:42.340Z,32.71
2019-05-22T17:44:59.025Z,33.99
2019-05-22T17:50:25.303Z,34.91
2019-05-22T17:55:24.303Z,35.05
2019-05-22T18:00:37.308Z,36.39
2019-05-22T18:05:49.480Z,37.96
2019-05-22T18:11:02.838Z,40.85
2019-05-22T18:16:24.009Z,41.54
2019-05-22T18:21:34.055Z,41.73
2019-05-22T18:26:44.121Z,42.39
2019-05-22T18:31:54.825Z,42.48
2019-05-22T18:37:11.784Z,42.03
2019-05-22T18:42:45.936Z,42.28
2019-05-22T18:47:58.102Z,42.26
2019-05-22T18:53:07.104Z,41.78
2019-05-22T18:58:18.469Z,42.75
2019-05-22T19:03:31.523Z,43.13
2019-05-22T19:08:46.027Z,42.19
2019-05-22T19:13:54.230Z,42.34
2019-05-22T19:19:05.247Z,41.54
2019-05-22T19:24:15.526Z,41.62
2019-05-22T19:29:27.508Z,41.90
2019-05-22T19:34:40.704Z,42.22
2019-05-22T19:39:48.313Z,43.31
2019-05-22T19:45:03.035Z,41.36
2019-05-22T19:50:22.818Z,42.60
2019-05-22T19:55:29.272Z,42.87
2019-05-22T20:00:40.045Z,41.96
2019-05-22T20:05:47.083Z,43.81
2019-05-22T20:10:58.213Z,44.11
2019-05-22T20:16:07.907Z,43.68
2019-05-22T20:21:23.044Z,44.20
2019-05-22T20:26:34.716Z,43.99
2019-05-22T20:31:47.868Z,43.68
2019-05-22T20:37:00.193Z,42.83
2019-05-22T20:42:11.440Z,43.41
2019-05-22T20:47:26.821Z,43.31
2019-05-22T20:52:38.144Z,44.41
2019-05-22T20:57:49.384Z,44.19
2019-05-22T21:03:09.623Z,44.85
2019-05-22T21:08:20.041Z,46.53
2019-05-22T21:13:30.856Z,47.66
2019-05-22T21:18:48.201Z,47.11
2019-05-22T21:24:11.177Z,47.33
2019-05-22T21:29:16.550Z,47.78
2019-05-22T21:34:28.929Z,47.82
2019-05-22T21:39:44.928Z,47.63
2019-05-22T21:45:01.065Z,48.70
2019-05-22T21:50:17.614Z,46.53
2019-05-22T21:55:28.264Z,48.29
2019-05-22T22:01:09.142Z,48.44
2019-05-22T22:06:24.364Z,48.31
2019-05-22T22:11:36.984Z,48.83
2019-05-22T22:16:49.313Z,48.18
2019-05-22T22:22:04.198Z,48.97
2019-05-22T22:27:16.201Z,49.20
2019-05-22T22:32:33.708Z,48.63
2019-05-22T22:37:43.408Z,48.90
2019-05-22T22:42:57.125Z,49.49
2019-05-22T22:48:32.246Z,49.33
2019-05-22T22:53:50.698Z,50.58
2019-05-22T22:59:02.818Z,50.72
2019-05-22T23:04:15.125Z,50.60
2019-05-22T23:09:28.866Z,50.54
2019-05-22T23:14:44.314Z,50.65
2019-05-22T23:19:51.145Z,50.80
2019-05-22T23:25:03.462Z,51.25
2019-05-22T23:30:24.398Z,51.34
2019-05-22T23:36:11.480Z,51.23
2019-05-22T23:41:24.599Z,51.41
2019-05-22T23:46:36.815Z,51.93
2019-05-22T23:51:51.995Z,51.69
2019-05-22T23:57:02.432Z,52.15
